createdAt,value
2022-12-15T00:05:12.523Z,19.53
2022-12-15T00:10:32.940Z,21.17
2022-12-15T00:15:52.968Z,18.03
2022-12-15T00:21:16.593Z,19.20
2022-12-15T00:26:37.199Z,20.53
2022-12-15T00:31:58.156Z,19.50
2022-12-15T00:37:18.442Z,20.07
2022-12-15T00:42:20.045Z,19.30
2022-12-15T00:47:21.686Z,19.93
2022-12-15T00:52:41.902Z,19.37
2022-12-15T00:58:02.698Z,20.47
2022-12-15T01:03:42.999Z,20.60
2022-12-15T01:09:03.649Z,20.23
2022-12-15T01:14:23.582Z,20.03
2022-12-15T01:19:43.733Z,18.47
2022-12-15T01:24:45.290Z,19.20
2022-12-15T01:29:46.914Z,19.37
2022-12-15T01:34:49.748Z,21.33
2022-12-15T01:40:09.714Z,20.10
2022-12-15T01:45:29.374Z,19.47
2022-12-15T01:50:33.553Z,20.23
2022-12-15T01:55:35.219Z,19.57
2022-12-15T02:00:36.947Z,19.20
2022-12-15T02:05:39.308Z,19.33
2022-12-15T02:11:16.184Z,19.47
2022-12-15T02:16:37.994Z,19.03
2022-12-15T02:21:43.818Z,18.97
2022-12-15T02:26:51.292Z,19.57
2022-12-15T02:31:59.361Z,19.57
2022-12-15T02:37:11.780Z,19.77
2022-12-15T02:42:13.411Z,20.27
2022-12-15T02:47:32.784Z,18.80
2022-12-15T02:52:59.456Z,20.60
2022-12-15T02:58:05.762Z,18.33
2022-12-15T03:03:07.895Z,19.33
2022-12-15T03:08:09.567Z,20.23
2022-12-15T03:13:11.127Z,19.57
2022-12-15T03:18:12.705Z,19.17
2022-12-15T03:23:14.308Z,18.73
2022-12-15T03:28:15.902Z,18.87
2022-12-15T03:33:17.554Z,19.43
2022-12-15T03:38:19.175Z,19.87
2022-12-15T03:43:20.723Z,18.83
2022-12-15T03:48:22.337Z,18.37
2022-12-15T03:53:23.937Z,19.07
2022-12-15T03:58:25.495Z,20.00
2022-12-15T04:03:27.134Z,18.10
2022-12-15T04:08:28.724Z,18.20
2022-12-15T04:13:30.540Z,18.27
2022-12-15T04:18:32.449Z,18.30
2022-12-15T04:23:34.305Z,19.20
2022-12-15T04:28:54.490Z,19.33
2022-12-15T04:34:18.714Z,19.77
2022-12-15T04:39:38.820Z,18.43
2022-12-15T04:44:59.118Z,18.47
2022-12-15T04:50:19.212Z,19.87
2022-12-15T04:55:39.414Z,20.07
2022-12-15T05:00:59.650Z,19.63
2022-12-15T05:06:20.023Z,19.10
2022-12-15T05:11:40.340Z,19.33
2022-12-15T05:17:00.383Z,18.90
2022-12-15T05:22:20.379Z,19.00
2022-12-15T05:27:40.501Z,18.63
2022-12-15T05:32:43.221Z,18.83
2022-12-15T05:37:44.791Z,19.60
2022-12-15T05:42:50.110Z,18.93
2022-12-15T05:47:52.658Z,18.37
2022-12-15T05:52:55.612Z,18.30
2022-12-15T05:57:57.287Z,17.13
2022-12-15T06:02:59.121Z,17.67
2022-12-15T06:08:00.969Z,16.67
2022-12-15T06:13:02.540Z,16.03
2022-12-15T06:18:04.189Z,16.23
2022-12-15T06:23:05.768Z,16.60
2022-12-15T06:28:07.304Z,16.87
2022-12-15T06:33:08.873Z,16.87
2022-12-15T06:38:10.498Z,16.63
2022-12-15T06:43:12.132Z,17.30
2022-12-15T06:48:13.740Z,15.57
2022-12-15T06:53:19.635Z,16.67
2022-12-15T06:58:21.311Z,19.67
2022-12-15T07:03:23.119Z,16.80
2022-12-15T07:08:30.792Z,16.70
2022-12-15T07:13:34.591Z,15.67
2022-12-15T07:18:36.380Z,15.63
2022-12-15T07:23:55.728Z,15.83
2022-12-15T07:28:58.137Z,17.13
2022-12-15T07:33:59.758Z,16.60
2022-12-15T07:39:04.797Z,16.23
2022-12-15T07:44:06.415Z,15.23
2022-12-15T07:49:09.332Z,15.17
2022-12-15T07:54:12.112Z,13.73
2022-12-15T07:59:13.666Z,13.77
2022-12-15T08:04:15.753Z,13.60
2022-12-15T08:09:17.340Z,14.03
2022-12-15T08:14:19.388Z,14.13
2022-12-15T08:19:21.294Z,13.47
2022-12-15T08:24:22.869Z,13.83
2022-12-15T08:29:50.027Z,13.90
2022-12-15T08:34:47.715Z,13.70
2022-12-15T08:39:49.320Z,13.90
2022-12-15T08:44:51.456Z,13.70
2022-12-15T08:49:54.534Z,14.53
2022-12-15T08:54:56.102Z,14.40
2022-12-15T08:59:57.695Z,16.23
2022-12-15T09:04:59.244Z,14.57
2022-12-15T09:10:00.861Z,14.73
2022-12-15T09:15:02.441Z,15.67
2022-12-15T09:20:04.432Z,15.83
2022-12-15T09:25:06.366Z,15.70
2022-12-15T09:30:09.165Z,14.43
2022-12-15T09:35:10.733Z,14.37
2022-12-15T09:40:13.122Z,14.20
2022-12-15T09:45:19.815Z,14.40
2022-12-15T09:50:26.428Z,14.47
2022-12-15T09:55:35.170Z,14.17
2022-12-15T10:00:57.002Z,14.37
2022-12-15T10:06:17.750Z,15.17
2022-12-15T10:11:42.769Z,15.83
2022-12-15T10:17:14.235Z,15.57
2022-12-15T10:22:36.773Z,15.70
2022-12-15T10:28:05.894Z,15.27
2022-12-15T10:33:28.419Z,14.13
2022-12-15T10:38:37.982Z,13.33
2022-12-15T10:43:41.951Z,14.17
2022-12-15T10:48:48.522Z,14.20
2022-12-15T10:54:06.609Z,14.80
2022-12-15T10:59:23.256Z,13.70
2022-12-15T11:04:29.973Z,12.73
2022-12-15T11:09:36.996Z,14.40
2022-12-15T11:14:43.946Z,14.47
2022-12-15T11:20:03.014Z,14.10
2022-12-15T11:25:25.241Z,15.33
2022-12-15T11:30:33.206Z,15.13
2022-12-15T11:35:54.276Z,15.87
2022-12-15T11:40:57.806Z,16.40
2022-12-15T11:46:01.904Z,16.20
2022-12-15T11:51:29.398Z,16.70
2022-12-15T11:56:50.552Z,17.23
2022-12-15T12:02:04.188Z,17.70
2022-12-15T12:07:43.915Z,16.73
2022-12-15T12:13:14.125Z,16.60
2022-12-15T12:18:21.724Z,16.43
2022-12-15T12:23:42.880Z,16.37
2022-12-15T12:28:57.029Z,17.03
2022-12-15T12:34:03.188Z,15.67
2022-12-15T12:39:04.885Z,16.57
2022-12-15T12:44:32.387Z,16.40
2022-12-15T12:49:40.935Z,15.73
2022-12-15T12:54:46.984Z,16.43
2022-12-15T12:59:59.168Z,16.70
2022-12-15T13:05:05.090Z,16.20
2022-12-15T13:10:09.831Z,16.83
2022-12-15T13:15:21.385Z,16.53
2022-12-15T13:20:25.924Z,16.07
2022-12-15T13:25:40.711Z,15.97
2022-12-15T13:31:16.717Z,15.53
2022-12-15T13:36:55.921Z,14.67
2022-12-15T13:47:27.645Z,15.33
2022-12-15T13:53:16.235Z,16.07
2022-12-15T13:58:00.031Z,15.83
2022-12-15T14:03:11.804Z,16.43
2022-12-15T14:08:14.984Z,17.80
2022-12-15T14:13:22.426Z,16.93
2022-12-15T14:18:31.321Z,17.53
2022-12-15T14:24:11.028Z,17.97
2022-12-15T14:29:06.470Z,19.03
2022-12-15T14:34:19.689Z,18.90
2022-12-15T14:39:23.525Z,17.97
2022-12-15T14:50:02.053Z,20.33
2022-12-15T14:55:23.546Z,20.40
2022-12-15T15:00:31.577Z,21.40
2022-12-15T15:05:33.329Z,20.13
2022-12-15T15:10:35.021Z,22.80
2022-12-15T15:15:36.628Z,21.93
2022-12-15T15:20:38.278Z,21.17
2022-12-15T15:25:42.551Z,21.67
2022-12-15T15:31:07.113Z,22.53
2022-12-15T15:36:10.243Z,22.17
2022-12-15T15:41:16.529Z,22.33
2022-12-15T15:46:21.033Z,23.03
2022-12-15T15:51:24.346Z,21.50
2022-12-15T15:56:27.494Z,21.57
2022-12-15T16:01:29.181Z,19.77
2022-12-15T16:06:30.890Z,19.63
2022-12-15T16:11:33.358Z,21.23
2022-12-15T16:16:35.154Z,21.97
2022-12-15T16:21:36.912Z,22.23
2022-12-15T16:26:39.290Z,20.80
2022-12-15T16:31:45.386Z,22.03
2022-12-15T16:36:47.457Z,21.03
2022-12-15T16:41:49.054Z,21.10
2022-12-15T16:46:51.370Z,20.70
2022-12-15T16:51:53.845Z,20.30
2022-12-15T16:56:56.923Z,20.10
2022-12-15T17:01:58.594Z,22.57
2022-12-15T17:07:00.407Z,22.20
2022-12-15T17:12:02.217Z,24.30
2022-12-15T17:17:12.959Z,24.53
2022-12-15T17:22:15.085Z,23.53
2022-12-15T17:27:27.984Z,22.53
2022-12-15T17:32:29.719Z,23.97
2022-12-15T17:37:35.227Z,24.93
2022-12-15T17:42:37.451Z,25.43
2022-12-15T17:47:39.135Z,27.20
2022-12-15T17:52:43.122Z,24.90
2022-12-15T17:57:45.091Z,25.47
2022-12-15T18:02:47.392Z,25.43
2022-12-15T18:08:01.759Z,29.73
2022-12-15T18:13:03.997Z,25.10
2022-12-15T18:18:05.728Z,26.30
2022-12-15T18:23:20.881Z,26.07
2022-12-15T18:28:28.132Z,24.33
2022-12-15T18:33:33.212Z,24.00
2022-12-15T18:38:35.056Z,23.90
2022-12-15T18:43:37.385Z,24.60
2022-12-15T18:48:40.156Z,23.83
2022-12-15T18:53:41.980Z,23.33
2022-12-15T18:58:43.869Z,23.83
2022-12-15T19:03:45.502Z,22.93
2022-12-15T19:08:47.196Z,24.00
2022-12-15T19:13:48.926Z,24.37
2022-12-15T19:19:12.536Z,25.80
2022-12-15T19:24:48.456Z,24.13
2022-12-15T19:29:50.545Z,24.70
2022-12-15T19:34:52.236Z,25.00
2022-12-15T19:39:55.343Z,24.07
2022-12-15T19:44:57.152Z,24.20
2022-12-15T19:49:58.760Z,25.43
2022-12-15T19:55:01.366Z,24.37
2022-12-15T20:00:13.780Z,26.30
2022-12-15T20:05:15.418Z,25.57
2022-12-15T20:10:29.454Z,24.27
2022-12-15T20:15:34.855Z,25.13
2022-12-15T20:20:37.478Z,25.17
2022-12-15T20:25:40.924Z,24.83
2022-12-15T20:30:44.197Z,24.30
2022-12-15T20:35:47.836Z,24.97
2022-12-15T20:40:50.495Z,26.20
2022-12-15T20:46:04.310Z,25.27
2022-12-15T20:51:09.887Z,25.60
2022-12-15T20:56:11.777Z,25.20
2022-12-15T21:01:33.220Z,25.33
2022-12-15T21:06:36.849Z,26.27
2022-12-15T21:11:38.680Z,26.77
2022-12-15T21:16:40.363Z,25.33
2022-12-15T21:21:51.859Z,24.57
2022-12-15T21:26:53.822Z,27.23
2022-12-15T21:31:56.897Z,26.07
2022-12-15T21:36:58.614Z,25.87
2022-12-15T21:42:04.070Z,26.50
2022-12-15T21:47:47.354Z,26.63
2022-12-15T21:52:49.108Z,26.77
2022-12-15T21:57:51.669Z,25.50
2022-12-15T22:02:54.096Z,26.37
2022-12-15T22:07:58.252Z,25.57
2022-12-15T22:13:00.082Z,26.70
2022-12-15T22:18:01.816Z,26.97
2022-12-15T22:23:03.448Z,26.70
2022-12-15T22:28:05.187Z,25.57
2022-12-15T22:33:21.575Z,25.37
2022-12-15T22:38:24.292Z,24.73
2022-12-15T22:43:40.243Z,26.97
2022-12-15T22:48:44.259Z,26.10
2022-12-15T22:53:46.049Z,25.83
2022-12-15T22:58:48.404Z,27.10
2022-12-15T23:03:51.511Z,26.43
2022-12-15T23:08:55.813Z,26.97
2022-12-15T23:13:57.831Z,26.57
2022-12-15T23:19:00.305Z,28.00
2022-12-15T23:24:01.962Z,26.90
2022-12-15T23:29:03.702Z,26.80
2022-12-15T23:34:05.528Z,25.87
2022-12-15T23:39:07.279Z,27.00
2022-12-15T23:44:12.233Z,27.73
2022-12-15T23:49:13.931Z,28.77
2022-12-15T23:54:15.667Z,28.80
2022-12-15T23:59:17.483Z,28.63
